PWSweather.com
Personal Weather Stations
Station Observations
BUCO1953
Cerklje Na GorenjskemSI

Cerklje Na GorenjskemSI

Lat: 46.2556, Lon: 14.5172

Elevation: 1312

Station Type: WS3600

High Low Average
Temperature 58.2°F14.6°C 38.4°F3.6°C 46.6°F8.1°C
Dew Point 37.4°F3.0°C 31.3°F-0.4°C 34.2°F1.2°C
Winds 7.3 mph 11.7 kmh Calm Calm 2.0 mph SE3.2 kmh SE
Wind Gusts 10.5 mph16.9 kmh -- 3.0 mph4.8 kmh
Humidity 82% 43% 63%
Pressure 29.76 in1007.8 mb 29.61 in1002.7 mb -
Precipitation 0.00 in0.0 mm - -
Hour Temp Dew Point Humidity Winds Wind Gusts Pressure Precip Precip Rate Daily Precip Total
12:00 AM 46.7°F8.2°C 31.3°F-0.4°C 55% 3.4 mph E5.5 kmh E 4.2 mph6.8 kmh 29.63 in1003.4 mb 0.00 in0.0 mm 0.00 in/hr0.0 mm/hr 0.00 in0.0 mm
12:05 AM 46.9°F8.3°C 31.5°F-0.3°C 55% 3.1 mph 5.0 kmh 4.2 mph6.8 kmh 29.63 in1003.4 mb 0.00 in0.0 mm 0.00 in/hr0.0 mm/hr 0.00 in0.0 mm
12:10 AM 46.2°F7.9°C 31.7°F-0.2°C 57% 4.1 mph SE6.6 kmh SE 5.1 mph8.2 kmh 29.64 in1003.7 mb 0.00 in0.0 mm 0.00 in/hr0.0 mm/hr 0.00 in0.0 mm
12:15 AM 46.5°F8.1°C 31.6°F-0.2°C 56% 5.3 mph E8.5 kmh E 7.1 mph11.4 kmh 29.63 in1003.4 mb 0.00 in0.0 mm 0.00 in/hr0.0 mm/hr 0.00 in0.0 mm
12:20 AM 46.7°F8.2°C 31.3°F-0.4°C 55% 2.1 mph ENE3.4 kmh ENE 7.1 mph11.4 kmh 29.64 in1003.7 mb 0.00 in0.0 mm 0.00 in/hr0.0 mm/hr 0.00 in0.0 mm
12:25 AM 46.9°F8.3°C 31.5°F-0.3°C 55% 4.5 mph SE7.2 kmh SE 5.3 mph8.5 kmh 29.64 in1003.7 mb 0.00 in0.0 mm 0.00 in/hr0.0 mm/hr 0.00 in0.0 mm
12:30 AM 46.7°F8.2°C 31.3°F-0.4°C 55% 2.9 mph N4.7 kmh N 6.9 mph11.1 kmh 29.64 in1003.7 mb 0.00 in0.0 mm 0.00 in/hr0.0 mm/hr 0.00 in0.0 mm
12:35 AM 46.9°F8.3°C 31.5°F-0.3°C 55% 3.1 mph E5.0 kmh E 6.9 mph11.1 kmh 29.64 in1003.7 mb 0.00 in0.0 mm 0.00 in/hr0.0 mm/hr 0.00 in0.0 mm
12:40 AM 46.9°F8.3°C 31.5°F-0.3°C 55% 2.3 mph NE3.7 kmh NE 4.0 mph6.4 kmh 29.65 in1004.1 mb 0.00 in0.0 mm 0.00 in/hr0.0 mm/hr 0.00 in0.0 mm
12:45 AM 46.4°F8.0°C 31.4°F-0.3°C 56% 2.0 mph WNW3.2 kmh WNW 4.0 mph6.4 kmh 29.65 in1004.1 mb 0.00 in0.0 mm 0.00 in/hr0.0 mm/hr 0.00 in0.0 mm
12:50 AM 46.4°F8.0°C 31.4°F-0.3°C 56% 2.2 mph E3.5 kmh E 4.6 mph7.4 kmh 29.65 in1004.1 mb 0.00 in0.0 mm 0.00 in/hr0.0 mm/hr 0.00 in0.0 mm
12:55 AM 46.0°F7.8°C 31.5°F-0.3°C 57% 2.1 mph NNE3.4 kmh NNE 4.6 mph7.4 kmh 29.65 in1004.1 mb 0.00 in0.0 mm 0.00 in/hr0.0 mm/hr 0.00 in0.0 mm
01:00 AM 46.2°F7.9°C 31.7°F-0.2°C 57% 2.0 mph NW3.2 kmh NW 3.3 mph5.3 kmh 29.65 in1004.1 mb 0.00 in0.0 mm 0.00 in/hr0.0 mm/hr 0.00 in0.0 mm
01:05 AM 45.8°F7.7°C 31.8°F-0.1°C 58% Calm Calm 3.3 mph5.3 kmh 29.65 in1004.1 mb 0.00 in0.0 mm 0.00 in/hr0.0 mm/hr 0.00 in0.0 mm
01:10 AM 45.5°F7.5°C 32.4°F0.2°C 60% 5.9 mph SE9.5 kmh SE 8.0 mph12.9 kmh 29.65 in1004.1 mb 0.00 in0.0 mm 0.00 in/hr0.0 mm/hr 0.00 in0.0 mm
01:15 AM 45.1°F7.3°C 32.1°F0.1°C 60% 1.7 mph NE2.7 kmh NE 8.0 mph12.9 kmh 29.65 in1004.1 mb 0.00 in0.0 mm 0.00 in/hr0.0 mm/hr 0.00 in0.0 mm
01:20 AM 45.1°F7.3°C 32.1°F0.1°C 60% 2.2 mph ENE3.5 kmh ENE 5.1 mph8.2 kmh 29.65 in1004.1 mb 0.00 in0.0 mm 0.00 in/hr0.0 mm/hr 0.00 in0.0 mm
01:25 AM 44.9°F7.2°C 31.9°F-0.1°C 60% 1.9 mph NNE3.1 kmh NNE 4.4 mph7.1 kmh 29.65 in1004.1 mb 0.00 in0.0 mm 0.00 in/hr0.0 mm/hr 0.00 in0.0 mm
01:30 AM 44.7°F7.1°C 32.5°F0.3°C 62% 3.2 mph SSE5.1 kmh SSE 5.5 mph8.9 kmh 29.65 in1004.1 mb 0.00 in0.0 mm 0.00 in/hr0.0 mm/hr 0.00 in0.0 mm
01:35 AM 44.7°F7.1°C 32.5°F0.3°C 62% 2.2 mph SSE3.5 kmh SSE 5.5 mph8.9 kmh 29.65 in1004.1 mb 0.00 in0.0 mm 0.00 in/hr0.0 mm/hr 0.00 in0.0 mm
01:40 AM 44.7°F7.1°C 32.5°F0.3°C 63% 2.4 mph NNE3.9 kmh NNE 3.1 mph5.0 kmh 29.65 in1004.1 mb 0.00 in0.0 mm 0.00 in/hr0.0 mm/hr 0.00 in0.0 mm
01:45 AM 44.4°F6.9°C 32.6°F0.3°C 63% 1.6 mph NE2.6 kmh NE 2.9 mph4.7 kmh 29.65 in1004.1 mb 0.00 in0.0 mm 0.00 in/hr0.0 mm/hr 0.00 in0.0 mm
01:50 AM 44.0°F6.7°C 32.6°F0.3°C 64% 0.4 mph E0.6 kmh E 2.6 mph4.2 kmh 29.65 in1004.1 mb 0.00 in0.0 mm 0.00 in/hr0.0 mm/hr 0.00 in0.0 mm
01:55 AM 43.8°F6.6°C 32.8°F0.4°C 65% 3.0 mph E4.8 kmh E 3.1 mph5.0 kmh 29.65 in1004.1 mb 0.00 in0.0 mm 0.00 in/hr0.0 mm/hr 0.00 in0.0 mm
02:00 AM 43.7°F6.5°C 33.0°F0.6°C 66% 1.0 mph SE1.6 kmh SE 3.1 mph5.0 kmh 29.66 in1004.4 mb 0.00 in0.0 mm 0.00 in/hr0.0 mm/hr 0.00 in0.0 mm
02:05 AM 43.7°F6.5°C 33.4°F0.8°C 67% 1.2 mph N1.9 kmh N 4.0 mph6.4 kmh 29.65 in1004.1 mb 0.00 in0.0 mm 0.00 in/hr0.0 mm/hr 0.00 in0.0 mm
02:10 AM 43.8°F6.6°C 33.2°F0.7°C 66% 1.7 mph ESE2.7 kmh ESE 4.0 mph6.4 kmh 29.65 in1004.1 mb 0.00 in0.0 mm 0.00 in/hr0.0 mm/hr 0.00 in0.0 mm
02:15 AM 43.5°F6.4°C 32.8°F0.4°C 66% 0.4 mph SE0.6 kmh SE 4.0 mph6.4 kmh 29.65 in1004.1 mb 0.00 in0.0 mm 0.00 in/hr0.0 mm/hr 0.00 in0.0 mm
02:20 AM 42.6°F5.9°C 32.4°F0.2°C 67% 0.4 mph NNE0.6 kmh NNE 2.4 mph3.9 kmh 29.65 in1004.1 mb 0.00 in0.0 mm 0.00 in/hr0.0 mm/hr 0.00 in0.0 mm
02:25 AM 42.4°F5.8°C 32.6°F0.3°C 69% 1.5 mph SSE2.4 kmh SSE 2.4 mph3.9 kmh 29.65 in1004.1 mb 0.00 in0.0 mm 0.00 in/hr0.0 mm/hr 0.00 in0.0 mm
02:30 AM 41.9°F5.5°C 32.9°F0.5°C 70% 1.5 mph NW2.4 kmh NW 2.4 mph3.9 kmh 29.65 in1004.1 mb 0.00 in0.0 mm 0.00 in/hr0.0 mm/hr 0.00 in0.0 mm
02:35 AM 42.4°F5.8°C 33.0°F0.6°C 69% 3.3 mph 5.3 kmh 4.4 mph7.1 kmh 29.65 in1004.1 mb 0.00 in0.0 mm 0.00 in/hr0.0 mm/hr 0.00 in0.0 mm
02:41 AM 42.6°F5.9°C 33.2°F0.7°C 69% 4.6 mph 7.4 kmh 4.6 mph7.4 kmh 29.65 in1004.1 mb 0.00 in0.0 mm 0.00 in/hr0.0 mm/hr 0.00 in0.0 mm
02:46 AM 42.0°F5.6°C 33.0°F0.6°C 70% 1.7 mph SE2.7 kmh SE 4.6 mph7.4 kmh 29.66 in1004.4 mb 0.00 in0.0 mm 0.00 in/hr0.0 mm/hr 0.00 in0.0 mm
02:51 AM 41.5°F5.3°C 32.8°F0.4°C 71% 2.9 mph SE4.7 kmh SE 2.9 mph4.7 kmh 29.65 in1004.1 mb 0.00 in0.0 mm 0.00 in/hr0.0 mm/hr 0.00 in0.0 mm
02:56 AM 41.3°F5.2°C 32.6°F0.3°C 71% Calm Calm 2.9 mph4.7 kmh 29.65 in1004.1 mb 0.00 in0.0 mm 0.00 in/hr0.0 mm/hr 0.00 in0.0 mm
03:01 AM 41.1°F5.1°C 32.8°F0.4°C 72% 2.2 mph E3.5 kmh E 2.2 mph3.5 kmh 29.65 in1004.1 mb 0.00 in0.0 mm 0.00 in/hr0.0 mm/hr 0.00 in0.0 mm
03:06 AM 40.6°F4.8°C 32.6°F0.3°C 73% 2.2 mph ESE3.5 kmh ESE 2.6 mph4.2 kmh 29.65 in1004.1 mb 0.00 in0.0 mm 0.00 in/hr0.0 mm/hr 0.00 in0.0 mm
03:10 AM 40.6°F4.8°C 32.6°F0.3°C 73% 1.5 mph SSE2.4 kmh SSE 2.6 mph4.2 kmh 29.65 in1004.1 mb 0.00 in0.0 mm 0.00 in/hr0.0 mm/hr 0.00 in0.0 mm
03:16 AM 40.6°F4.8°C 32.6°F0.3°C 73% 1.5 mph 2.4 kmh 1.5 mph2.4 kmh 29.66 in1004.4 mb 0.00 in0.0 mm 0.00 in/hr0.0 mm/hr 0.00 in0.0 mm
03:21 AM 40.6°F4.8°C 32.9°F0.5°C 74% 1.8 mph SSE2.9 kmh SSE 2.4 mph3.9 kmh 29.65 in1004.1 mb 0.00 in0.0 mm 0.00 in/hr0.0 mm/hr 0.00 in0.0 mm
03:26 AM 40.6°F4.8°C 32.9°F0.5°C 73% Calm Calm 2.4 mph3.9 kmh 29.66 in1004.4 mb 0.00 in0.0 mm 0.00 in/hr0.0 mm/hr 0.00 in0.0 mm
03:31 AM 40.6°F4.8°C 32.9°F0.5°C 74% 2.9 mph SE4.7 kmh SE 2.9 mph4.7 kmh 29.65 in1004.1 mb 0.00 in0.0 mm 0.00 in/hr0.0 mm/hr 0.00 in0.0 mm
03:36 AM 40.2°F4.6°C 32.6°F0.3°C 74% 2.0 mph NNW3.2 kmh NNW 2.9 mph4.7 kmh 29.65 in1004.1 mb 0.00 in0.0 mm 0.00 in/hr0.0 mm/hr 0.00 in0.0 mm
03:41 AM 40.2°F4.6°C 32.6°F0.3°C 74% 2.4 mph ESE3.9 kmh ESE 2.9 mph4.7 kmh 29.66 in1004.4 mb 0.00 in0.0 mm 0.00 in/hr0.0 mm/hr 0.00 in0.0 mm
03:46 AM 40.2°F4.6°C 32.6°F0.3°C 74% 1.1 mph S1.8 kmh S 2.4 mph3.9 kmh 29.65 in1004.1 mb 0.00 in0.0 mm 0.00 in/hr0.0 mm/hr 0.00 in0.0 mm
03:51 AM 39.9°F4.4°C 32.9°F0.5°C 76% 0.4 mph NW0.6 kmh NW 2.4 mph3.9 kmh 29.66 in1004.4 mb 0.00 in0.0 mm 0.00 in/hr0.0 mm/hr 0.00 in0.0 mm
03:56 AM 39.9°F4.4°C 32.9°F0.5°C 75% 0.6 mph E1.0 kmh E 0.6 mph1.0 kmh 29.66 in1004.4 mb 0.00 in0.0 mm 0.00 in/hr0.0 mm/hr 0.00 in0.0 mm
04:01 AM 40.1°F4.5°C 33.1°F0.6°C 75% 0.6 mph E1.0 kmh E 0.6 mph1.0 kmh 29.65 in1004.1 mb 0.00 in0.0 mm 0.00 in/hr0.0 mm/hr 0.00 in0.0 mm
04:06 AM 40.2°F4.6°C 33.2°F0.7°C 76% 2.4 mph ESE3.9 kmh ESE 2.6 mph4.2 kmh 29.65 in1004.1 mb 0.00 in0.0 mm 0.00 in/hr0.0 mm/hr 0.00 in0.0 mm
04:11 AM 40.2°F4.6°C 33.2°F0.7°C 75% 1.1 mph NNE1.8 kmh NNE 2.6 mph4.2 kmh 29.65 in1004.1 mb 0.00 in0.0 mm 0.00 in/hr0.0 mm/hr 0.00 in0.0 mm
04:16 AM 40.2°F4.6°C 33.2°F0.7°C 76% 0.6 mph E1.0 kmh E 1.3 mph2.1 kmh 29.65 in1004.1 mb 0.00 in0.0 mm 0.00 in/hr0.0 mm/hr 0.00 in0.0 mm
04:21 AM 40.2°F4.6°C 33.2°F0.7°C 75% 2.4 mph SE3.9 kmh SE 2.4 mph3.9 kmh 29.65 in1004.1 mb 0.00 in0.0 mm 0.00 in/hr0.0 mm/hr 0.00 in0.0 mm
04:26 AM 40.2°F4.6°C 32.9°F0.5°C 75% 1.3 mph SSE2.1 kmh SSE 2.4 mph3.9 kmh 29.65 in1004.1 mb 0.00 in0.0 mm 0.00 in/hr0.0 mm/hr 0.00 in0.0 mm
04:31 AM 40.2°F4.6°C 32.9°F0.5°C 76% Calm Calm 1.3 mph2.1 kmh 29.65 in1004.1 mb 0.00 in0.0 mm 0.00 in/hr0.0 mm/hr 0.00 in0.0 mm
04:36 AM 40.1°F4.5°C 32.7°F0.4°C 75% Calm Calm 1.3 mph2.1 kmh 29.65 in1004.1 mb 0.00 in0.0 mm 0.00 in/hr0.0 mm/hr 0.00 in0.0 mm
04:41 AM 39.9°F4.4°C 32.9°F0.5°C 76% Calm Calm -- 29.65 in1004.1 mb 0.00 in0.0 mm 0.00 in/hr0.0 mm/hr 0.00 in0.0 mm
04:46 AM 39.5°F4.2°C 32.9°F0.5°C 77% 0.8 mph SW1.3 kmh SW 0.8 mph1.3 kmh 29.65 in1004.1 mb 0.00 in0.0 mm 0.00 in/hr0.0 mm/hr 0.00 in0.0 mm
04:51 AM 38.8°F3.8°C 32.2°F0.1°C 77% 1.3 mph N2.1 kmh N 1.3 mph2.1 kmh 29.65 in1004.1 mb 0.00 in0.0 mm 0.00 in/hr0.0 mm/hr 0.00 in0.0 mm
04:56 AM 38.8°F3.8°C 32.2°F0.1°C 78% 1.0 mph E1.6 kmh E 1.3 mph2.1 kmh 29.65 in1004.1 mb 0.00 in0.0 mm 0.00 in/hr0.0 mm/hr 0.00 in0.0 mm
05:01 AM 38.8°F3.8°C 32.2°F0.1°C 78% 2.0 mph SE3.2 kmh SE 2.0 mph3.2 kmh 29.65 in1004.1 mb 0.00 in0.0 mm 0.00 in/hr0.0 mm/hr 0.00 in0.0 mm
05:06 AM 38.8°F3.8°C 32.2°F0.1°C 78% 0.9 mph E1.4 kmh E 2.0 mph3.2 kmh 29.65 in1004.1 mb 0.00 in0.0 mm 0.00 in/hr0.0 mm/hr 0.00 in0.0 mm
05:11 AM 38.8°F3.8°C 32.5°F0.3°C 78% 0.6 mph NNE1.0 kmh NNE 2.0 mph3.2 kmh 29.65 in1004.1 mb 0.00 in0.0 mm 0.00 in/hr0.0 mm/hr 0.00 in0.0 mm
05:16 AM 38.8°F3.8°C 32.5°F0.3°C 78% 1.0 mph E1.6 kmh E 1.5 mph2.4 kmh 29.65 in1004.1 mb 0.00 in0.0 mm 0.00 in/hr0.0 mm/hr 0.00 in0.0 mm
05:21 AM 38.8°F3.8°C 32.5°F0.3°C 78% 0.5 mph NE0.8 kmh NE 1.5 mph2.4 kmh 29.65 in1004.1 mb 0.00 in0.0 mm 0.00 in/hr0.0 mm/hr 0.00 in0.0 mm
05:26 AM 38.8°F3.8°C 32.5°F0.3°C 78% 0.4 mph NNE0.6 kmh NNE 1.5 mph2.4 kmh 29.66 in1004.4 mb 0.00 in0.0 mm 0.00 in/hr0.0 mm/hr 0.00 in0.0 mm
05:31 AM 38.8°F3.8°C 32.5°F0.3°C 78% 2.0 mph SE3.2 kmh SE 2.0 mph3.2 kmh 29.66 in1004.4 mb 0.00 in0.0 mm 0.00 in/hr0.0 mm/hr 0.00 in0.0 mm
05:36 AM 38.6°F3.7°C 32.4°F0.2°C 78% 1.1 mph NNE1.8 kmh NNE 2.0 mph3.2 kmh 29.66 in1004.4 mb 0.00 in0.0 mm 0.00 in/hr0.0 mm/hr 0.00 in0.0 mm
05:41 AM 38.4°F3.6°C 32.5°F0.3°C 79% 1.1 mph E1.8 kmh E 1.1 mph1.8 kmh 29.66 in1004.4 mb 0.00 in0.0 mm 0.00 in/hr0.0 mm/hr 0.00 in0.0 mm
05:46 AM 38.4°F3.6°C 32.5°F0.3°C 79% Calm Calm 1.1 mph1.8 kmh 29.66 in1004.4 mb 0.00 in0.0 mm 0.00 in/hr0.0 mm/hr 0.00 in0.0 mm
05:51 AM 38.4°F3.6°C 32.5°F0.3°C 79% 0.8 mph ESE1.3 kmh ESE 1.5 mph2.4 kmh 29.65 in1004.1 mb 0.00 in0.0 mm 0.00 in/hr0.0 mm/hr 0.00 in0.0 mm
05:56 AM 38.4°F3.6°C 32.5°F0.3°C 79% 3.5 mph SE5.6 kmh SE 3.5 mph5.6 kmh 29.66 in1004.4 mb 0.00 in0.0 mm 0.00 in/hr0.0 mm/hr 0.00 in0.0 mm
06:01 AM 38.6°F3.7°C 32.7°F0.4°C 79% 1.4 mph N2.3 kmh N 3.5 mph5.6 kmh 29.66 in1004.4 mb 0.00 in0.0 mm 0.00 in/hr0.0 mm/hr 0.00 in0.0 mm
06:06 AM 38.6°F3.7°C 32.4°F0.2°C 78% Calm Calm 3.5 mph5.6 kmh 29.67 in1004.7 mb 0.00 in0.0 mm 0.00 in/hr0.0 mm/hr 0.00 in0.0 mm
06:11 AM 38.6°F3.7°C 32.7°F0.4°C 79% 2.0 mph SE3.2 kmh SE 2.0 mph3.2 kmh 29.66 in1004.4 mb 0.00 in0.0 mm 0.00 in/hr0.0 mm/hr 0.00 in0.0 mm
06:16 AM 38.8°F3.8°C 32.9°F0.5°C 79% 1.5 mph NNE2.4 kmh NNE 2.0 mph3.2 kmh 29.66 in1004.4 mb 0.00 in0.0 mm 0.00 in/hr0.0 mm/hr 0.00 in0.0 mm
06:21 AM 38.6°F3.7°C 32.7°F0.4°C 79% Calm Calm 1.7 mph2.7 kmh 29.67 in1004.7 mb 0.00 in0.0 mm 0.00 in/hr0.0 mm/hr 0.00 in0.0 mm
06:26 AM 38.4°F3.6°C 32.5°F0.3°C 79% 1.5 mph ESE2.4 kmh ESE 1.7 mph2.7 kmh 29.67 in1004.7 mb 0.00 in0.0 mm 0.00 in/hr0.0 mm/hr 0.00 in0.0 mm
06:31 AM 38.4°F3.6°C 32.5°F0.3°C 79% 0.8 mph 1.3 kmh 1.5 mph2.4 kmh 29.67 in1004.7 mb 0.00 in0.0 mm 0.00 in/hr0.0 mm/hr 0.00 in0.0 mm
06:36 AM 38.4°F3.6°C 32.5°F0.3°C 79% 2.2 mph ESE3.5 kmh ESE 2.4 mph3.9 kmh 29.66 in1004.4 mb 0.00 in0.0 mm 0.00 in/hr0.0 mm/hr 0.00 in0.0 mm
06:41 AM 38.6°F3.7°C 32.7°F0.4°C 78% 1.7 mph SE2.7 kmh SE 2.4 mph3.9 kmh 29.67 in1004.7 mb 0.00 in0.0 mm 0.00 in/hr0.0 mm/hr 0.00 in0.0 mm
06:46 AM 38.4°F3.6°C 32.5°F0.3°C 79% 1.3 mph NNE2.1 kmh NNE 2.0 mph3.2 kmh 29.68 in1005.1 mb 0.00 in0.0 mm 0.00 in/hr0.0 mm/hr 0.00 in0.0 mm
06:51 AM 38.4°F3.6°C 32.5°F0.3°C 79% Calm Calm 1.7 mph2.7 kmh 29.68 in1005.1 mb 0.00 in0.0 mm 0.00 in/hr0.0 mm/hr 0.00 in0.0 mm
06:56 AM 38.4°F3.6°C 32.5°F0.3°C 79% 1.2 mph E1.9 kmh E 1.5 mph2.4 kmh 29.68 in1005.1 mb 0.00 in0.0 mm 0.00 in/hr0.0 mm/hr 0.00 in0.0 mm
07:01 AM 38.4°F3.6°C 32.5°F0.3°C 79% 0.6 mph NNE1.0 kmh NNE 1.5 mph2.4 kmh 29.68 in1005.1 mb 0.00 in0.0 mm 0.00 in/hr0.0 mm/hr 0.00 in0.0 mm
07:06 AM 38.6°F3.7°C 32.7°F0.4°C 79% 1.3 mph SE2.1 kmh SE 1.3 mph2.1 kmh 29.68 in1005.1 mb 0.00 in0.0 mm 0.00 in/hr0.0 mm/hr 0.00 in0.0 mm
07:11 AM 38.6°F3.7°C 32.4°F0.2°C 78% 1.0 mph NE1.6 kmh NE 1.3 mph2.1 kmh 29.68 in1005.1 mb 0.00 in0.0 mm 0.00 in/hr0.0 mm/hr 0.00 in0.0 mm
07:16 AM 38.8°F3.8°C 32.5°F0.3°C 78% Calm Calm 1.3 mph2.1 kmh 29.68 in1005.1 mb 0.00 in0.0 mm 0.00 in/hr0.0 mm/hr 0.00 in0.0 mm
07:21 AM 39.0°F3.9°C 32.0°F0.0°C 76% 2.4 mph ESE3.9 kmh ESE 2.4 mph3.9 kmh 29.68 in1005.1 mb 0.00 in0.0 mm 0.00 in/hr0.0 mm/hr 0.00 in0.0 mm
07:26 AM 39.0°F3.9°C 32.4°F0.2°C 77% 1.3 mph NNE2.1 kmh NNE 2.4 mph3.9 kmh 29.68 in1005.1 mb 0.00 in0.0 mm 0.00 in/hr0.0 mm/hr 0.00 in0.0 mm
07:31 AM 39.2°F4.0°C 32.2°F0.1°C 76% 1.4 mph ESE2.3 kmh ESE 1.7 mph2.7 kmh 29.68 in1005.1 mb 0.00 in0.0 mm 0.00 in/hr0.0 mm/hr 0.00 in0.0 mm
07:36 AM 39.3°F4.1°C 32.7°F0.4°C 76% Calm Calm 2.2 mph3.5 kmh 29.68 in1005.1 mb 0.00 in0.0 mm 0.00 in/hr0.0 mm/hr 0.00 in0.0 mm
07:41 AM 39.7°F4.3°C 32.4°F0.2°C 76% 1.5 mph NNE2.4 kmh NNE 2.4 mph3.9 kmh 29.68 in1005.1 mb 0.00 in0.0 mm 0.00 in/hr0.0 mm/hr 0.00 in0.0 mm
07:46 AM 40.1°F4.5°C 32.7°F0.4°C 75% 0.8 mph SSE1.3 kmh SSE 2.4 mph3.9 kmh 29.68 in1005.1 mb 0.00 in0.0 mm 0.00 in/hr0.0 mm/hr 0.00 in0.0 mm
07:51 AM 40.1°F4.5°C 32.7°F0.4°C 75% 1.3 mph ESE2.1 kmh ESE 1.5 mph2.4 kmh 29.68 in1005.1 mb 0.00 in0.0 mm 0.00 in/hr0.0 mm/hr 0.00 in0.0 mm
07:56 AM 40.6°F4.8°C 32.9°F0.5°C 74% Calm Calm 1.3 mph2.1 kmh 29.69 in1005.4 mb 0.00 in0.0 mm 0.00 in/hr0.0 mm/hr 0.00 in0.0 mm
08:01 AM 41.1°F5.1°C 33.4°F0.8°C 74% Calm Calm 1.3 mph2.1 kmh 29.69 in1005.4 mb 0.00 in0.0 mm 0.00 in/hr0.0 mm/hr 0.00 in0.0 mm
08:06 AM 42.4°F5.8°C 34.0°F1.1°C 72% 0.8 mph E1.3 kmh E 0.8 mph1.3 kmh 29.69 in1005.4 mb 0.00 in0.0 mm 0.00 in/hr0.0 mm/hr 0.00 in0.0 mm
08:11 AM 43.5°F6.4°C 34.0°F1.1°C 69% Calm Calm 1.5 mph2.4 kmh 29.69 in1005.4 mb 0.00 in0.0 mm 0.00 in/hr0.0 mm/hr 0.00 in0.0 mm
08:16 AM 44.7°F7.1°C 33.3°F0.7°C 64% Calm Calm 1.5 mph2.4 kmh 29.70 in1005.8 mb 0.00 in0.0 mm 0.00 in/hr0.0 mm/hr 0.00 in0.0 mm
08:21 AM 45.3°F7.4°C 32.6°F0.3°C 61% 2.3 mph S3.7 kmh S 2.4 mph3.9 kmh 29.70 in1005.8 mb 0.00 in0.0 mm 0.00 in/hr0.0 mm/hr 0.00 in0.0 mm
08:26 AM 46.2°F7.9°C 32.6°F0.3°C 59% 1.2 mph SW1.9 kmh SW 2.4 mph3.9 kmh 29.69 in1005.4 mb 0.00 in0.0 mm 0.00 in/hr0.0 mm/hr 0.00 in0.0 mm
08:31 AM 45.8°F7.7°C 32.7°F0.4°C 60% 1.7 mph NNW2.7 kmh NNW 1.7 mph2.7 kmh 29.70 in1005.8 mb 0.00 in0.0 mm 0.00 in/hr0.0 mm/hr 0.00 in0.0 mm
08:36 AM 46.0°F7.8°C 32.4°F0.2°C 59% Calm Calm 1.7 mph2.7 kmh 29.70 in1005.8 mb 0.00 in0.0 mm 0.00 in/hr0.0 mm/hr 0.00 in0.0 mm
08:42 AM 46.5°F8.1°C 33.4°F0.8°C 60% 0.4 mph ESE0.6 kmh ESE 0.4 mph0.6 kmh 29.70 in1005.8 mb 0.00 in0.0 mm 0.00 in/hr0.0 mm/hr 0.00 in0.0 mm
08:47 AM 46.2°F7.9°C 31.7°F-0.2°C 57% 3.5 mph NW5.6 kmh NW 3.8 mph6.1 kmh 29.70 in1005.8 mb 0.00 in0.0 mm 0.00 in/hr0.0 mm/hr 0.00 in0.0 mm
08:51 AM 45.8°F7.7°C 32.7°F0.4°C 60% 3.3 mph WNW5.3 kmh WNW 3.8 mph6.1 kmh 29.70 in1005.8 mb 0.00 in0.0 mm 0.00 in/hr0.0 mm/hr 0.00 in0.0 mm
08:56 AM 46.7°F8.2°C 32.2°F0.1°C 57% 2.6 mph W4.2 kmh W 3.8 mph6.1 kmh 29.70 in1005.8 mb 0.00 in0.0 mm 0.00 in/hr0.0 mm/hr 0.00 in0.0 mm
09:01 AM 46.5°F8.1°C 32.0°F0.0°C 57% 1.4 mph ENE2.3 kmh ENE 2.6 mph4.2 kmh 29.69 in1005.4 mb 0.00 in0.0 mm 0.00 in/hr0.0 mm/hr 0.00 in0.0 mm
09:07 AM 47.4°F8.6°C 32.9°F0.5°C 56% 1.5 mph NNW2.4 kmh NNW 3.3 mph5.3 kmh 29.69 in1005.4 mb 0.00 in0.0 mm 0.00 in/hr0.0 mm/hr 0.00 in0.0 mm
09:11 AM 47.4°F8.6°C 32.9°F0.5°C 56% 2.1 mph NNW3.4 kmh NNW 3.3 mph5.3 kmh 29.69 in1005.4 mb 0.00 in0.0 mm 0.00 in/hr0.0 mm/hr 0.00 in0.0 mm
09:17 AM 47.4°F8.6°C 32.0°F0.0°C 55% 4.7 mph SW7.6 kmh SW 5.1 mph8.2 kmh 29.68 in1005.1 mb 0.00 in0.0 mm 0.00 in/hr0.0 mm/hr 0.00 in0.0 mm
09:22 AM 49.2°F9.6°C 34.2°F1.2°C 56% 0.4 mph SE0.6 kmh SE 5.1 mph8.2 kmh 29.69 in1005.4 mb 0.00 in0.0 mm 0.00 in/hr0.0 mm/hr 0.00 in0.0 mm
09:27 AM 49.4°F9.7°C 33.0°F0.6°C 53% 3.6 mph SW5.8 kmh SW 5.1 mph8.2 kmh 29.68 in1005.1 mb 0.00 in0.0 mm 0.00 in/hr0.0 mm/hr 0.00 in0.0 mm
09:32 AM 48.9°F9.4°C 32.4°F0.2°C 53% 2.1 mph NE3.4 kmh NE 4.0 mph6.4 kmh 29.68 in1005.1 mb 0.00 in0.0 mm 0.00 in/hr0.0 mm/hr 0.00 in0.0 mm
09:37 AM 48.9°F9.4°C 32.9°F0.5°C 55% 1.8 mph NE2.9 kmh NE 3.3 mph5.3 kmh 29.69 in1005.4 mb 0.00 in0.0 mm 0.00 in/hr0.0 mm/hr 0.00 in0.0 mm
09:42 AM 49.2°F9.6°C 33.7°F0.9°C 55% 1.7 mph SSE2.7 kmh SSE 2.0 mph3.2 kmh 29.68 in1005.1 mb 0.00 in0.0 mm 0.00 in/hr0.0 mm/hr 0.00 in0.0 mm
09:47 AM 50.9°F10.5°C 34.3°F1.3°C 53% 0.5 mph 0.8 kmh 1.7 mph2.7 kmh 29.68 in1005.1 mb 0.00 in0.0 mm 0.00 in/hr0.0 mm/hr 0.00 in0.0 mm
09:52 AM 51.0°F10.6°C 33.1°F0.6°C 50% 2.0 mph SSW3.2 kmh SSW 2.6 mph4.2 kmh 29.68 in1005.1 mb 0.00 in0.0 mm 0.00 in/hr0.0 mm/hr 0.00 in0.0 mm
09:57 AM 50.1°F10.1°C 33.2°F0.7°C 52% Calm Calm 2.6 mph4.2 kmh 29.68 in1005.1 mb 0.00 in0.0 mm 0.00 in/hr0.0 mm/hr 0.00 in0.0 mm
10:02 AM 49.8°F9.9°C 33.3°F0.7°C 54% 1.0 mph NNW1.6 kmh NNW 2.6 mph4.2 kmh 29.68 in1005.1 mb 0.00 in0.0 mm 0.00 in/hr0.0 mm/hr 0.00 in0.0 mm
10:07 AM 49.8°F9.9°C 33.3°F0.7°C 53% 0.6 mph E1.0 kmh E 4.2 mph6.8 kmh 29.68 in1005.1 mb 0.00 in0.0 mm 0.00 in/hr0.0 mm/hr 0.00 in0.0 mm
10:12 AM 48.5°F9.2°C 33.0°F0.6°C 55% 2.9 mph WSW4.7 kmh WSW 4.6 mph7.4 kmh 29.68 in1005.1 mb 0.00 in0.0 mm 0.00 in/hr0.0 mm/hr 0.00 in0.0 mm
10:17 AM 48.9°F9.4°C 33.8°F1.0°C 56% 2.3 mph SE3.7 kmh SE 4.6 mph7.4 kmh 29.68 in1005.1 mb 0.00 in0.0 mm 0.00 in/hr0.0 mm/hr 0.00 in0.0 mm
10:22 AM 49.2°F9.6°C 34.2°F1.2°C 53% 3.1 mph NW5.0 kmh NW 3.1 mph5.0 kmh 29.69 in1005.4 mb 0.00 in0.0 mm 0.00 in/hr0.0 mm/hr 0.00 in0.0 mm
10:27 AM 48.5°F9.2°C 33.0°F0.6°C 55% 3.4 mph SE5.5 kmh SE 6.2 mph10.0 kmh 29.68 in1005.1 mb 0.00 in0.0 mm 0.00 in/hr0.0 mm/hr 0.00 in0.0 mm
10:32 AM 48.7°F9.3°C 33.2°F0.7°C 55% 2.4 mph SSE3.9 kmh SSE 6.2 mph10.0 kmh 29.68 in1005.1 mb 0.00 in0.0 mm 0.00 in/hr0.0 mm/hr 0.00 in0.0 mm
10:37 AM 48.9°F9.4°C 33.4°F0.8°C 55% 4.0 mph NW6.4 kmh NW 6.2 mph10.0 kmh 29.68 in1005.1 mb 0.00 in0.0 mm 0.00 in/hr0.0 mm/hr 0.00 in0.0 mm
10:42 AM 49.6°F9.8°C 33.6°F0.9°C 54% Calm Calm 6.2 mph10.0 kmh 29.68 in1005.1 mb 0.00 in0.0 mm 0.00 in/hr0.0 mm/hr 0.00 in0.0 mm
10:47 AM 50.0°F10.0°C 33.5°F0.8°C 53% 0.5 mph 0.8 kmh 5.5 mph8.9 kmh 29.68 in1005.1 mb 0.00 in0.0 mm 0.00 in/hr0.0 mm/hr 0.00 in0.0 mm
10:52 AM 49.6°F9.8°C 33.6°F0.9°C 54% 1.1 mph NW1.8 kmh NW 1.1 mph1.8 kmh 29.68 in1005.1 mb 0.00 in0.0 mm 0.00 in/hr0.0 mm/hr 0.00 in0.0 mm
10:57 AM 49.4°F9.7°C 33.9°F1.1°C 55% 3.1 mph S5.0 kmh S 4.0 mph6.4 kmh 29.68 in1005.1 mb 0.00 in0.0 mm 0.00 in/hr0.0 mm/hr 0.00 in0.0 mm
11:02 AM 49.8°F9.9°C 33.3°F0.7°C 53% 2.2 mph NW3.5 kmh NW 4.0 mph6.4 kmh 29.68 in1005.1 mb 0.00 in0.0 mm 0.00 in/hr0.0 mm/hr 0.00 in0.0 mm
11:07 AM 49.2°F9.6°C 32.8°F0.4°C 53% 2.4 mph SW3.9 kmh SW 3.5 mph5.6 kmh 29.68 in1005.1 mb 0.00 in0.0 mm 0.00 in/hr0.0 mm/hr 0.00 in0.0 mm
11:12 AM 50.0°F10.0°C 33.5°F0.8°C 53% 1.8 mph S2.9 kmh S 2.4 mph3.9 kmh 29.68 in1005.1 mb 0.00 in0.0 mm 0.00 in/hr0.0 mm/hr 0.00 in0.0 mm
11:17 AM 49.8°F9.9°C 32.9°F0.5°C 52% 1.6 mph NW2.6 kmh NW 2.4 mph3.9 kmh 29.68 in1005.1 mb 0.00 in0.0 mm 0.00 in/hr0.0 mm/hr 0.00 in0.0 mm
11:22 AM 49.2°F9.6°C 33.2°F0.7°C 54% 1.8 mph W2.9 kmh W 4.6 mph7.4 kmh 29.67 in1004.7 mb 0.00 in0.0 mm 0.00 in/hr0.0 mm/hr 0.00 in0.0 mm
11:27 AM 50.1°F10.1°C 33.6°F0.9°C 53% 2.5 mph S4.0 kmh S 4.6 mph7.4 kmh 29.67 in1004.7 mb 0.00 in0.0 mm 0.00 in/hr0.0 mm/hr 0.00 in0.0 mm
11:32 AM 50.1°F10.1°C 33.6°F0.9°C 53% Calm Calm 2.6 mph4.2 kmh 29.67 in1004.7 mb 0.00 in0.0 mm 0.00 in/hr0.0 mm/hr 0.00 in0.0 mm
11:37 AM 49.8°F9.9°C 33.3°F0.7°C 53% 3.8 mph NW6.1 kmh NW 3.8 mph6.1 kmh 29.67 in1004.7 mb 0.00 in0.0 mm 0.00 in/hr0.0 mm/hr 0.00 in0.0 mm
11:42 AM 49.6°F9.8°C 33.6°F0.9°C 54% 4.0 mph 6.4 kmh 4.4 mph7.1 kmh 29.67 in1004.7 mb 0.00 in0.0 mm 0.00 in/hr0.0 mm/hr 0.00 in0.0 mm
11:47 AM 51.0°F10.6°C 34.0°F1.1°C 52% 3.0 mph SSW4.8 kmh SSW 4.4 mph7.1 kmh 29.67 in1004.7 mb 0.00 in0.0 mm 0.00 in/hr0.0 mm/hr 0.00 in0.0 mm
11:52 AM 51.4°F10.8°C 34.3°F1.3°C 52% 1.9 mph S3.1 kmh S 3.8 mph6.1 kmh 29.67 in1004.7 mb 0.00 in0.0 mm 0.00 in/hr0.0 mm/hr 0.00 in0.0 mm
11:57 AM 51.0°F10.6°C 33.6°F0.9°C 52% 1.6 mph ESE2.6 kmh ESE 3.8 mph6.1 kmh 29.67 in1004.7 mb 0.00 in0.0 mm 0.00 in/hr0.0 mm/hr 0.00 in0.0 mm
12:02 PM 50.0°F10.0°C 33.5°F0.8°C 53% 3.8 mph ENE6.1 kmh ENE 4.0 mph6.4 kmh 29.67 in1004.7 mb 0.00 in0.0 mm 0.00 in/hr0.0 mm/hr 0.00 in0.0 mm
12:07 PM 50.5°F10.3°C 34.4°F1.3°C 54% 2.2 mph SSW3.5 kmh SSW 4.0 mph6.4 kmh 29.67 in1004.7 mb 0.00 in0.0 mm 0.00 in/hr0.0 mm/hr 0.00 in0.0 mm
12:12 PM 51.4°F10.8°C 34.3°F1.3°C 52% 5.3 mph ESE8.5 kmh ESE 5.3 mph8.5 kmh 29.66 in1004.4 mb 0.00 in0.0 mm 0.00 in/hr0.0 mm/hr 0.00 in0.0 mm
12:18 PM 51.0°F10.6°C 34.5°F1.4°C 53% 0.4 mph NNE0.6 kmh NNE 5.3 mph8.5 kmh 29.67 in1004.7 mb 0.00 in0.0 mm 0.00 in/hr0.0 mm/hr 0.00 in0.0 mm
12:23 PM 51.0°F10.6°C 33.6°F0.9°C 51% 2.6 mph ESE4.2 kmh ESE 5.3 mph8.5 kmh 29.66 in1004.4 mb 0.00 in0.0 mm 0.00 in/hr0.0 mm/hr 0.00 in0.0 mm
12:28 PM 51.6°F10.9°C 34.5°F1.4°C 52% 3.3 mph 5.3 kmh 4.6 mph7.4 kmh 29.67 in1004.7 mb 0.00 in0.0 mm 0.00 in/hr0.0 mm/hr 0.00 in0.0 mm
12:33 PM 51.6°F10.9°C 34.0°F1.1°C 51% 2.8 mph N4.5 kmh N 4.4 mph7.1 kmh 29.66 in1004.4 mb 0.00 in0.0 mm 0.00 in/hr0.0 mm/hr 0.00 in0.0 mm
12:38 PM 51.6°F10.9°C 34.0°F1.1°C 51% 1.7 mph NNW2.7 kmh NNW 4.2 mph6.8 kmh 29.66 in1004.4 mb 0.00 in0.0 mm 0.00 in/hr0.0 mm/hr 0.00 in0.0 mm
12:43 PM 53.2°F11.8°C 35.0°F1.7°C 50% 2.1 mph N3.4 kmh N 4.2 mph6.8 kmh 29.65 in1004.1 mb 0.00 in0.0 mm 0.00 in/hr0.0 mm/hr 0.00 in0.0 mm
12:48 PM 54.3°F12.4°C 34.9°F1.6°C 48% 2.6 mph WNW4.2 kmh WNW 2.6 mph4.2 kmh 29.65 in1004.1 mb 0.00 in0.0 mm 0.00 in/hr0.0 mm/hr 0.00 in0.0 mm
12:53 PM 55.9°F13.3°C 35.3°F1.8°C 46% 0.4 mph ENE0.6 kmh ENE 2.6 mph4.2 kmh 29.65 in1004.1 mb 0.00 in0.0 mm 0.00 in/hr0.0 mm/hr 0.00 in0.0 mm
12:58 PM 55.5°F13.1°C 35.5°F1.9°C 47% 3.4 mph SSE5.5 kmh SSE 4.2 mph6.8 kmh 29.65 in1004.1 mb 0.00 in0.0 mm 0.00 in/hr0.0 mm/hr 0.00 in0.0 mm
01:03 PM 55.5°F13.1°C 35.5°F1.9°C 47% 1.7 mph ESE2.7 kmh ESE 4.2 mph6.8 kmh 29.65 in1004.1 mb 0.00 in0.0 mm 0.00 in/hr0.0 mm/hr 0.00 in0.0 mm
01:08 PM 55.9°F13.3°C 35.8°F2.1°C 47% Calm Calm 4.0 mph6.4 kmh 29.65 in1004.1 mb 0.00 in0.0 mm 0.00 in/hr0.0 mm/hr 0.00 in0.0 mm
01:13 PM 56.1°F13.4°C 36.6°F2.6°C 48% 2.9 mph W4.7 kmh W 5.8 mph9.3 kmh 29.64 in1003.7 mb 0.00 in0.0 mm 0.00 in/hr0.0 mm/hr 0.00 in0.0 mm
01:18 PM 56.8°F13.8°C 36.1°F2.3°C 46% 4.2 mph SE6.8 kmh SE 5.8 mph9.3 kmh 29.64 in1003.7 mb 0.00 in0.0 mm 0.00 in/hr0.0 mm/hr 0.00 in0.0 mm
01:23 PM 56.6°F13.7°C 35.4°F1.9°C 45% 2.5 mph ENE4.0 kmh ENE 6.7 mph10.8 kmh 29.64 in1003.7 mb 0.00 in0.0 mm 0.00 in/hr0.0 mm/hr 0.00 in0.0 mm
01:27 PM 56.4°F13.6°C 34.7°F1.5°C 44% 4.0 mph S6.4 kmh S 6.7 mph10.8 kmh 29.63 in1003.4 mb 0.00 in0.0 mm 0.00 in/hr0.0 mm/hr 0.00 in0.0 mm
01:33 PM 56.8°F13.8°C 36.1°F2.3°C 46% 1.5 mph NE2.4 kmh NE 4.2 mph6.8 kmh 29.64 in1003.7 mb 0.00 in0.0 mm 0.00 in/hr0.0 mm/hr 0.00 in0.0 mm
01:38 PM 56.8°F13.8°C 35.6°F2.0°C 45% 2.1 mph NW3.4 kmh NW 10.5 mph16.9 kmh 29.63 in1003.4 mb 0.00 in0.0 mm 0.00 in/hr0.0 mm/hr 0.00 in0.0 mm
01:43 PM 56.6°F13.7°C 35.4°F1.9°C 45% 3.1 mph NNE5.0 kmh NNE 10.5 mph16.9 kmh 29.63 in1003.4 mb 0.00 in0.0 mm 0.00 in/hr0.0 mm/hr 0.00 in0.0 mm
01:48 PM 57.5°F14.2°C 35.1°F1.7°C 43% 3.3 mph S5.3 kmh S 3.8 mph6.1 kmh 29.63 in1003.4 mb 0.00 in0.0 mm 0.00 in/hr0.0 mm/hr 0.00 in0.0 mm
01:53 PM 56.6°F13.7°C 34.8°F1.6°C 44% 5.1 mph ENE8.2 kmh ENE 5.1 mph8.2 kmh 29.63 in1003.4 mb 0.00 in0.0 mm 0.00 in/hr0.0 mm/hr 0.00 in0.0 mm
01:58 PM 56.4°F13.6°C 35.2°F1.8°C 45% 2.4 mph NW3.9 kmh NW 5.1 mph8.2 kmh 29.63 in1003.4 mb 0.00 in0.0 mm 0.00 in/hr0.0 mm/hr 0.00 in0.0 mm
02:03 PM 56.4°F13.6°C 35.2°F1.8°C 45% 2.3 mph SE3.7 kmh SE 6.7 mph10.8 kmh 29.62 in1003.0 mb 0.00 in0.0 mm 0.00 in/hr0.0 mm/hr 0.00 in0.0 mm
02:08 PM 57.9°F14.4°C 35.4°F1.9°C 43% 3.4 mph SE5.5 kmh SE 6.7 mph10.8 kmh 29.63 in1003.4 mb 0.00 in0.0 mm 0.00 in/hr0.0 mm/hr 0.00 in0.0 mm
02:13 PM 57.3°F14.1°C 35.5°F1.9°C 44% 1.8 mph E2.9 kmh E 5.3 mph8.5 kmh 29.62 in1003.0 mb 0.00 in0.0 mm 0.00 in/hr0.0 mm/hr 0.00 in0.0 mm
02:18 PM 56.4°F13.6°C 35.2°F1.8°C 45% 1.8 mph S2.9 kmh S 5.3 mph8.5 kmh 29.63 in1003.4 mb 0.00 in0.0 mm 0.00 in/hr0.0 mm/hr 0.00 in0.0 mm
02:23 PM 56.4°F13.6°C 35.2°F1.8°C 45% 2.9 mph E4.7 kmh E 5.3 mph8.5 kmh 29.62 in1003.0 mb 0.00 in0.0 mm 0.00 in/hr0.0 mm/hr 0.00 in0.0 mm
02:28 PM 57.3°F14.1°C 36.1°F2.3°C 45% 1.7 mph SE2.7 kmh SE 8.9 mph14.3 kmh 29.62 in1003.0 mb 0.00 in0.0 mm 0.00 in/hr0.0 mm/hr 0.00 in0.0 mm
02:33 PM 57.5°F14.2°C 35.7°F2.1°C 44% 1.7 mph N2.7 kmh N 8.9 mph14.3 kmh 29.62 in1003.0 mb 0.00 in0.0 mm 0.00 in/hr0.0 mm/hr 0.00 in0.0 mm
02:38 PM 56.8°F13.8°C 35.6°F2.0°C 45% Calm Calm 3.1 mph5.0 kmh 29.62 in1003.0 mb 0.00 in0.0 mm 0.00 in/hr0.0 mm/hr 0.00 in0.0 mm
02:43 PM 58.2°F14.6°C 35.7°F2.1°C 43% 2.1 mph S3.4 kmh S 3.1 mph5.0 kmh 29.62 in1003.0 mb 0.00 in0.0 mm 0.00 in/hr0.0 mm/hr 0.00 in0.0 mm
02:49 PM 56.8°F13.8°C 36.1°F2.3°C 46% 2.8 mph NE4.5 kmh NE 3.8 mph6.1 kmh 29.62 in1003.0 mb 0.00 in0.0 mm 0.00 in/hr0.0 mm/hr 0.00 in0.0 mm
02:54 PM 57.3°F14.1°C 36.1°F2.3°C 45% 2.8 mph S4.5 kmh S 4.2 mph6.8 kmh 29.61 in1002.7 mb 0.00 in0.0 mm 0.00 in/hr0.0 mm/hr 0.00 in0.0 mm
02:59 PM 57.3°F14.1°C 35.5°F1.9°C 44% 2.5 mph SE4.0 kmh SE 4.2 mph6.8 kmh 29.62 in1003.0 mb 0.00 in0.0 mm 0.00 in/hr0.0 mm/hr 0.00 in0.0 mm
03:04 PM 57.2°F14.0°C 35.3°F1.8°C 44% 7.3 mph ESE11.7 kmh ESE 7.3 mph11.7 kmh 29.62 in1003.0 mb 0.00 in0.0 mm 0.00 in/hr0.0 mm/hr 0.00 in0.0 mm
03:09 PM 56.8°F13.8°C 35.6°F2.0°C 45% 1.5 mph E2.4 kmh E 7.3 mph11.7 kmh 29.62 in1003.0 mb 0.00 in0.0 mm 0.00 in/hr0.0 mm/hr 0.00 in0.0 mm
03:14 PM 56.8°F13.8°C 35.6°F2.0°C 46% 1.3 mph NE2.1 kmh NE 7.3 mph11.7 kmh 29.62 in1003.0 mb 0.00 in0.0 mm 0.00 in/hr0.0 mm/hr 0.00 in0.0 mm
03:19 PM 57.2°F14.0°C 36.5°F2.5°C 46% 2.9 mph 4.7 kmh 4.4 mph7.1 kmh 29.62 in1003.0 mb 0.00 in0.0 mm 0.00 in/hr0.0 mm/hr 0.00 in0.0 mm
03:24 PM 56.4°F13.6°C 35.2°F1.8°C 45% 5.3 mph E8.5 kmh E 5.5 mph8.9 kmh 29.62 in1003.0 mb 0.00 in0.0 mm 0.00 in/hr0.0 mm/hr 0.00 in0.0 mm
03:29 PM 56.8°F13.8°C 35.6°F2.0°C 45% 2.2 mph SE3.5 kmh SE 8.0 mph12.9 kmh 29.63 in1003.4 mb 0.00 in0.0 mm 0.00 in/hr0.0 mm/hr 0.00 in0.0 mm
03:34 PM 56.4°F13.6°C 35.2°F1.8°C 45% 2.4 mph NW3.9 kmh NW 8.0 mph12.9 kmh 29.63 in1003.4 mb 0.00 in0.0 mm 0.00 in/hr0.0 mm/hr 0.00 in0.0 mm
03:39 PM 56.6°F13.7°C 36.0°F2.2°C 46% 4.3 mph ESE6.9 kmh ESE 8.0 mph12.9 kmh 29.62 in1003.0 mb 0.00 in0.0 mm 0.00 in/hr0.0 mm/hr 0.00 in0.0 mm
03:44 PM 56.8°F13.8°C 36.1°F2.3°C 46% 1.1 mph NNW1.8 kmh NNW 6.4 mph10.3 kmh 29.63 in1003.4 mb 0.00 in0.0 mm 0.00 in/hr0.0 mm/hr 0.00 in0.0 mm
03:49 PM 56.6°F13.7°C 36.0°F2.2°C 46% 2.3 mph ESE3.7 kmh ESE 3.1 mph5.0 kmh 29.63 in1003.4 mb 0.00 in0.0 mm 0.00 in/hr0.0 mm/hr 0.00 in0.0 mm
03:54 PM 57.2°F14.0°C 36.5°F2.5°C 46% 2.8 mph NNE4.5 kmh NNE 3.5 mph5.6 kmh 29.63 in1003.4 mb 0.00 in0.0 mm 0.00 in/hr0.0 mm/hr 0.00 in0.0 mm
03:59 PM 56.8°F13.8°C 36.1°F2.3°C 46% 3.8 mph SSE6.1 kmh SSE 3.8 mph6.1 kmh 29.62 in1003.0 mb 0.00 in0.0 mm 0.00 in/hr0.0 mm/hr 0.00 in0.0 mm
04:04 PM 56.6°F13.7°C 36.0°F2.2°C 46% 2.4 mph N3.9 kmh N 3.8 mph6.1 kmh 29.63 in1003.4 mb 0.00 in0.0 mm 0.00 in/hr0.0 mm/hr 0.00 in0.0 mm
04:09 PM 55.7°F13.2°C 35.7°F2.1°C 47% 1.8 mph W2.9 kmh W 3.1 mph5.0 kmh 29.63 in1003.4 mb 0.00 in0.0 mm 0.00 in/hr0.0 mm/hr 0.00 in0.0 mm
04:14 PM 56.3°F13.5°C 36.2°F2.3°C 47% 0.6 mph S1.0 kmh S 2.9 mph4.7 kmh 29.62 in1003.0 mb 0.00 in0.0 mm 0.00 in/hr0.0 mm/hr 0.00 in0.0 mm
04:19 PM 55.5°F13.1°C 35.5°F1.9°C 47% 2.5 mph NE4.0 kmh NE 6.7 mph10.8 kmh 29.63 in1003.4 mb 0.00 in0.0 mm 0.00 in/hr0.0 mm/hr 0.00 in0.0 mm
04:24 PM 55.0°F12.8°C 35.0°F1.7°C 48% 2.2 mph NNE3.5 kmh NNE 6.7 mph10.8 kmh 29.63 in1003.4 mb 0.00 in0.0 mm 0.00 in/hr0.0 mm/hr 0.00 in0.0 mm
04:29 PM 54.6°F12.6°C 35.8°F2.1°C 49% 4.5 mph E7.2 kmh E 6.7 mph10.8 kmh 29.63 in1003.4 mb 0.00 in0.0 mm 0.00 in/hr0.0 mm/hr 0.00 in0.0 mm
04:34 PM 54.6°F12.6°C 35.8°F2.1°C 49% 3.0 mph SE4.8 kmh SE 5.8 mph9.3 kmh 29.63 in1003.4 mb 0.00 in0.0 mm 0.00 in/hr0.0 mm/hr 0.00 in0.0 mm
04:39 PM 54.3°F12.4°C 36.0°F2.2°C 50% 2.6 mph ENE4.2 kmh ENE 5.8 mph9.3 kmh 29.63 in1003.4 mb 0.00 in0.0 mm 0.00 in/hr0.0 mm/hr 0.00 in0.0 mm
04:44 PM 53.9°F12.2°C 35.7°F2.1°C 50% 3.1 mph NE5.0 kmh NE 5.8 mph9.3 kmh 29.63 in1003.4 mb 0.00 in0.0 mm 0.00 in/hr0.0 mm/hr 0.00 in0.0 mm
04:49 PM 53.9°F12.2°C 35.7°F2.1°C 50% 3.3 mph ESE5.3 kmh ESE 3.8 mph6.1 kmh 29.63 in1003.4 mb 0.00 in0.0 mm 0.00 in/hr0.0 mm/hr 0.00 in0.0 mm
04:55 PM 53.7°F12.1°C 36.0°F2.2°C 51% 4.3 mph N6.9 kmh N 4.6 mph7.4 kmh 29.63 in1003.4 mb 0.00 in0.0 mm 0.00 in/hr0.0 mm/hr 0.00 in0.0 mm
05:00 PM 53.7°F12.1°C 36.0°F2.2°C 51% 1.6 mph S2.6 kmh S 4.6 mph7.4 kmh 29.63 in1003.4 mb 0.00 in0.0 mm 0.00 in/hr0.0 mm/hr 0.00 in0.0 mm
05:05 PM 53.6°F12.0°C 36.3°F2.4°C 52% 0.7 mph N1.1 kmh N 4.6 mph7.4 kmh 29.63 in1003.4 mb 0.00 in0.0 mm 0.00 in/hr0.0 mm/hr 0.00 in0.0 mm
05:10 PM 53.7°F12.1°C 36.5°F2.5°C 52% 4.0 mph NNE6.4 kmh NNE 4.0 mph6.4 kmh 29.64 in1003.7 mb 0.00 in0.0 mm 0.00 in/hr0.0 mm/hr 0.00 in0.0 mm
05:15 PM 53.6°F12.0°C 36.3°F2.4°C 52% 2.0 mph ENE3.2 kmh ENE 4.0 mph6.4 kmh 29.64 in1003.7 mb 0.00 in0.0 mm 0.00 in/hr0.0 mm/hr 0.00 in0.0 mm
05:20 PM 53.7°F12.1°C 36.5°F2.5°C 52% 1.5 mph SE2.4 kmh SE 4.0 mph6.4 kmh 29.64 in1003.7 mb 0.00 in0.0 mm 0.00 in/hr0.0 mm/hr 0.00 in0.0 mm
05:25 PM 53.2°F11.8°C 36.4°F2.4°C 53% 4.2 mph E6.8 kmh E 4.6 mph7.4 kmh 29.65 in1004.1 mb 0.00 in0.0 mm 0.00 in/hr0.0 mm/hr 0.00 in0.0 mm
05:30 PM 52.8°F11.6°C 36.6°F2.6°C 54% 2.0 mph NNE3.2 kmh NNE 4.6 mph7.4 kmh 29.65 in1004.1 mb 0.00 in0.0 mm 0.00 in/hr0.0 mm/hr 0.00 in0.0 mm
05:35 PM 52.8°F11.6°C 36.6°F2.6°C 54% 3.3 mph ENE5.3 kmh ENE 3.3 mph5.3 kmh 29.65 in1004.1 mb 0.00 in0.0 mm 0.00 in/hr0.0 mm/hr 0.00 in0.0 mm
05:40 PM 52.5°F11.4°C 36.7°F2.6°C 55% 0.9 mph SE1.4 kmh SE 3.3 mph5.3 kmh 29.65 in1004.1 mb 0.00 in0.0 mm 0.00 in/hr0.0 mm/hr 0.00 in0.0 mm
05:45 PM 52.1°F11.2°C 36.8°F2.7°C 56% 2.7 mph NW4.3 kmh NW 2.9 mph4.7 kmh 29.65 in1004.1 mb 0.00 in0.0 mm 0.00 in/hr0.0 mm/hr 0.00 in0.0 mm
05:50 PM 51.9°F11.1°C 36.6°F2.6°C 56% 3.8 mph ESE6.1 kmh ESE 3.8 mph6.1 kmh 29.65 in1004.1 mb 0.00 in0.0 mm 0.00 in/hr0.0 mm/hr 0.00 in0.0 mm
05:55 PM 51.6°F10.9°C 36.7°F2.6°C 57% 3.1 mph NE5.0 kmh NE 4.4 mph7.1 kmh 29.65 in1004.1 mb 0.00 in0.0 mm 0.00 in/hr0.0 mm/hr 0.00 in0.0 mm
06:00 PM 51.0°F10.6°C 36.7°F2.6°C 58% 4.4 mph NNE7.1 kmh NNE 4.4 mph7.1 kmh 29.66 in1004.4 mb 0.00 in0.0 mm 0.00 in/hr0.0 mm/hr 0.00 in0.0 mm
06:05 PM 50.9°F10.5°C 37.0°F2.8°C 59% 1.9 mph S3.1 kmh S 4.4 mph7.1 kmh 29.66 in1004.4 mb 0.00 in0.0 mm 0.00 in/hr0.0 mm/hr 0.00 in0.0 mm
06:10 PM 50.7°F10.4°C 36.8°F2.7°C 60% 2.4 mph NE3.9 kmh NE 4.4 mph7.1 kmh 29.66 in1004.4 mb 0.00 in0.0 mm 0.00 in/hr0.0 mm/hr 0.00 in0.0 mm
06:15 PM 50.3°F10.2°C 37.4°F3.0°C 61% 3.6 mph ESE5.8 kmh ESE 4.4 mph7.1 kmh 29.66 in1004.4 mb 0.00 in0.0 mm 0.00 in/hr0.0 mm/hr 0.00 in0.0 mm
06:20 PM 50.3°F10.2°C 37.0°F2.8°C 60% 0.7 mph NNW1.1 kmh NNW 4.4 mph7.1 kmh 29.67 in1004.7 mb 0.00 in0.0 mm 0.00 in/hr0.0 mm/hr 0.00 in0.0 mm
06:25 PM 50.0°F10.0°C 37.0°F2.8°C 61% 0.5 mph E0.8 kmh E 4.4 mph7.1 kmh 29.67 in1004.7 mb 0.00 in0.0 mm 0.00 in/hr0.0 mm/hr 0.00 in0.0 mm
06:30 PM 49.8°F9.9°C 36.9°F2.7°C 62% 1.1 mph NE1.8 kmh NE 2.9 mph4.7 kmh 29.67 in1004.7 mb 0.00 in0.0 mm 0.00 in/hr0.0 mm/hr 0.00 in0.0 mm
06:35 PM 49.6°F9.8°C 37.1°F2.8°C 62% 1.3 mph SSW2.1 kmh SSW 2.9 mph4.7 kmh 29.67 in1004.7 mb 0.00 in0.0 mm 0.00 in/hr0.0 mm/hr 0.00 in0.0 mm
06:40 PM 49.6°F9.8°C 37.1°F2.8°C 62% 3.1 mph ENE5.0 kmh ENE 3.1 mph5.0 kmh 29.68 in1005.1 mb 0.00 in0.0 mm 0.00 in/hr0.0 mm/hr 0.00 in0.0 mm
06:45 PM 49.4°F9.7°C 37.3°F2.9°C 63% 0.9 mph NW1.4 kmh NW 3.1 mph5.0 kmh 29.67 in1004.7 mb 0.00 in0.0 mm 0.00 in/hr0.0 mm/hr 0.00 in0.0 mm
06:50 PM 49.2°F9.6°C 37.2°F2.9°C 63% Calm Calm 3.1 mph5.0 kmh 29.68 in1005.1 mb 0.00 in0.0 mm 0.00 in/hr0.0 mm/hr 0.00 in0.0 mm
06:55 PM 48.9°F9.4°C 37.2°F2.9°C 64% Calm Calm 2.0 mph3.2 kmh 29.68 in1005.1 mb 0.00 in0.0 mm 0.00 in/hr0.0 mm/hr 0.00 in0.0 mm
07:00 PM 48.9°F9.4°C 37.2°F2.9°C 64% 0.4 mph S0.6 kmh S 2.0 mph3.2 kmh 29.68 in1005.1 mb 0.00 in0.0 mm 0.00 in/hr0.0 mm/hr 0.00 in0.0 mm
07:05 PM 48.7°F9.3°C 37.0°F2.8°C 64% Calm Calm 2.0 mph3.2 kmh 29.69 in1005.4 mb 0.00 in0.0 mm 0.00 in/hr0.0 mm/hr 0.00 in0.0 mm
07:10 PM 48.3°F9.1°C 36.7°F2.6°C 65% Calm Calm 2.0 mph3.2 kmh 29.69 in1005.4 mb 0.00 in0.0 mm 0.00 in/hr0.0 mm/hr 0.00 in0.0 mm
07:15 PM 48.0°F8.9°C 37.1°F2.8°C 66% Calm Calm -- 29.69 in1005.4 mb 0.00 in0.0 mm 0.00 in/hr0.0 mm/hr 0.00 in0.0 mm
07:20 PM 47.8°F8.8°C 36.9°F2.7°C 66% 2.2 mph ESE3.5 kmh ESE 2.2 mph3.5 kmh 29.69 in1005.4 mb 0.00 in0.0 mm 0.00 in/hr0.0 mm/hr 0.00 in0.0 mm
07:25 PM 47.4°F8.6°C 37.0°F2.8°C 67% 1.1 mph SSE1.8 kmh SSE 2.2 mph3.5 kmh 29.70 in1005.8 mb 0.00 in0.0 mm 0.00 in/hr0.0 mm/hr 0.00 in0.0 mm
07:31 PM 47.3°F8.5°C 36.4°F2.4°C 66% Calm Calm 1.1 mph1.8 kmh 29.69 in1005.4 mb 0.00 in0.0 mm 0.00 in/hr0.0 mm/hr 0.00 in0.0 mm
07:35 PM 47.1°F8.4°C 36.7°F2.6°C 67% Calm Calm 1.1 mph1.8 kmh 29.70 in1005.8 mb 0.00 in0.0 mm 0.00 in/hr0.0 mm/hr 0.00 in0.0 mm
07:41 PM 46.7°F8.2°C 36.3°F2.4°C 67% 1.3 mph E2.1 kmh E 2.0 mph3.2 kmh 29.70 in1005.8 mb 0.00 in0.0 mm 0.00 in/hr0.0 mm/hr 0.00 in0.0 mm
07:46 PM 46.5°F8.1°C 36.5°F2.5°C 68% 1.0 mph SE1.6 kmh SE 2.0 mph3.2 kmh 29.70 in1005.8 mb 0.00 in0.0 mm 0.00 in/hr0.0 mm/hr 0.00 in0.0 mm
07:51 PM 46.4°F8.0°C 36.8°F2.7°C 69% 2.9 mph NNE4.7 kmh NNE 2.9 mph4.7 kmh 29.70 in1005.8 mb 0.00 in0.0 mm 0.00 in/hr0.0 mm/hr 0.00 in0.0 mm
07:55 PM 46.9°F8.3°C 36.9°F2.7°C 68% 3.1 mph 5.0 kmh 3.1 mph5.0 kmh 29.71 in1006.1 mb 0.00 in0.0 mm 0.00 in/hr0.0 mm/hr 0.00 in0.0 mm
08:01 PM 46.7°F8.2°C 37.1°F2.8°C 69% 1.1 mph SE1.8 kmh SE 3.1 mph5.0 kmh 29.71 in1006.1 mb 0.00 in0.0 mm 0.00 in/hr0.0 mm/hr 0.00 in0.0 mm
08:05 PM 46.0°F7.8°C 36.4°F2.4°C 69% Calm Calm 1.1 mph1.8 kmh 29.71 in1006.1 mb 0.00 in0.0 mm 0.00 in/hr0.0 mm/hr 0.00 in0.0 mm
08:11 PM 45.6°F7.6°C 36.5°F2.5°C 71% Calm Calm -- 29.71 in1006.1 mb 0.00 in0.0 mm 0.00 in/hr0.0 mm/hr 0.00 in0.0 mm
08:16 PM 45.1°F7.3°C 36.3°F2.4°C 71% 0.6 mph SE1.0 kmh SE 0.6 mph1.0 kmh 29.71 in1006.1 mb 0.00 in0.0 mm 0.00 in/hr0.0 mm/hr 0.00 in0.0 mm
08:21 PM 44.9°F7.2°C 36.4°F2.4°C 72% 1.7 mph E2.7 kmh E 1.7 mph2.7 kmh 29.71 in1006.1 mb 0.00 in0.0 mm 0.00 in/hr0.0 mm/hr 0.00 in0.0 mm
08:26 PM 44.7°F7.1°C 36.2°F2.3°C 72% Calm Calm 3.3 mph5.3 kmh 29.71 in1006.1 mb 0.00 in0.0 mm 0.00 in/hr0.0 mm/hr 0.00 in0.0 mm
08:31 PM 44.7°F7.1°C 36.2°F2.3°C 72% Calm Calm 3.3 mph5.3 kmh 29.71 in1006.1 mb 0.00 in0.0 mm 0.00 in/hr0.0 mm/hr 0.00 in0.0 mm
08:36 PM 44.6°F7.0°C 36.1°F2.3°C 72% 0.4 mph SE0.6 kmh SE 0.4 mph0.6 kmh 29.71 in1006.1 mb 0.00 in0.0 mm 0.00 in/hr0.0 mm/hr 0.00 in0.0 mm
08:41 PM 43.8°F6.6°C 36.1°F2.3°C 74% 0.7 mph ENE1.1 kmh ENE 1.5 mph2.4 kmh 29.71 in1006.1 mb 0.00 in0.0 mm 0.00 in/hr0.0 mm/hr 0.00 in0.0 mm
08:46 PM 43.7°F6.5°C 35.9°F2.2°C 74% 1.7 mph ESE2.7 kmh ESE 1.7 mph2.7 kmh 29.71 in1006.1 mb 0.00 in0.0 mm 0.00 in/hr0.0 mm/hr 0.00 in0.0 mm
08:51 PM 43.5°F6.4°C 35.7°F2.1°C 74% Calm Calm 2.6 mph4.2 kmh 29.72 in1006.4 mb 0.00 in0.0 mm 0.00 in/hr0.0 mm/hr 0.00 in0.0 mm
08:56 PM 43.3°F6.3°C 35.6°F2.0°C 75% 1.4 mph E2.3 kmh E 2.6 mph4.2 kmh 29.71 in1006.1 mb 0.00 in0.0 mm 0.00 in/hr0.0 mm/hr 0.00 in0.0 mm
09:01 PM 42.9°F6.1°C 35.5°F1.9°C 75% 0.6 mph NE1.0 kmh NE 2.0 mph3.2 kmh 29.72 in1006.4 mb 0.00 in0.0 mm 0.00 in/hr0.0 mm/hr 0.00 in0.0 mm
09:06 PM 42.8°F6.0°C 35.7°F2.1°C 76% 2.0 mph ESE3.2 kmh ESE 2.4 mph3.9 kmh 29.72 in1006.4 mb 0.00 in0.0 mm 0.00 in/hr0.0 mm/hr 0.00 in0.0 mm
09:11 PM 42.4°F5.8°C 35.3°F1.8°C 76% 1.7 mph E2.7 kmh E 2.4 mph3.9 kmh 29.72 in1006.4 mb 0.00 in0.0 mm 0.00 in/hr0.0 mm/hr 0.00 in0.0 mm
09:16 PM 42.4°F5.8°C 35.3°F1.8°C 76% 2.9 mph NE4.7 kmh NE 3.1 mph5.0 kmh 29.72 in1006.4 mb 0.00 in0.0 mm 0.00 in/hr0.0 mm/hr 0.00 in0.0 mm
09:21 PM 42.4°F5.8°C 35.3°F1.8°C 76% 2.4 mph ESE3.9 kmh ESE 3.1 mph5.0 kmh 29.72 in1006.4 mb 0.00 in0.0 mm 0.00 in/hr0.0 mm/hr 0.00 in0.0 mm
09:26 PM 42.2°F5.7°C 35.5°F1.9°C 77% 2.2 mph ESE3.5 kmh ESE 3.1 mph5.0 kmh 29.72 in1006.4 mb 0.00 in0.0 mm 0.00 in/hr0.0 mm/hr 0.00 in0.0 mm
09:31 PM 42.0°F5.6°C 35.3°F1.8°C 77% 2.4 mph 3.9 kmh 2.4 mph3.9 kmh 29.73 in1006.8 mb 0.00 in0.0 mm 0.00 in/hr0.0 mm/hr 0.00 in0.0 mm
09:36 PM 42.0°F5.6°C 35.3°F1.8°C 77% Calm Calm 3.8 mph6.1 kmh 29.73 in1006.8 mb 0.00 in0.0 mm 0.00 in/hr0.0 mm/hr 0.00 in0.0 mm
09:41 PM 42.0°F5.6°C 35.3°F1.8°C 77% 3.3 mph SSE5.3 kmh SSE 3.8 mph6.1 kmh 29.73 in1006.8 mb 0.00 in0.0 mm 0.00 in/hr0.0 mm/hr 0.00 in0.0 mm
09:46 PM 41.9°F5.5°C 35.1°F1.7°C 77% Calm Calm 3.3 mph5.3 kmh 29.73 in1006.8 mb 0.00 in0.0 mm 0.00 in/hr0.0 mm/hr 0.00 in0.0 mm
09:51 PM 41.5°F5.3°C 34.8°F1.6°C 77% 1.3 mph 2.1 kmh 3.3 mph5.3 kmh 29.74 in1007.1 mb 0.00 in0.0 mm 0.00 in/hr0.0 mm/hr 0.00 in0.0 mm
09:56 PM 41.1°F5.1°C 34.4°F1.3°C 78% 1.3 mph 2.1 kmh 1.3 mph2.1 kmh 29.74 in1007.1 mb 0.00 in0.0 mm 0.00 in/hr0.0 mm/hr 0.00 in0.0 mm
10:01 PM 40.6°F4.8°C 34.2°F1.2°C 78% Calm Calm 1.3 mph2.1 kmh 29.74 in1007.1 mb 0.00 in0.0 mm 0.00 in/hr0.0 mm/hr 0.00 in0.0 mm
10:06 PM 40.4°F4.7°C 34.4°F1.3°C 79% Calm Calm 1.3 mph2.1 kmh 29.74 in1007.1 mb 0.00 in0.0 mm 0.00 in/hr0.0 mm/hr 0.00 in0.0 mm
10:11 PM 40.2°F4.6°C 34.2°F1.2°C 80% Calm Calm -- 29.74 in1007.1 mb 0.00 in0.0 mm 0.00 in/hr0.0 mm/hr 0.00 in0.0 mm
10:16 PM 40.2°F4.6°C 34.2°F1.2°C 80% 1.7 mph ESE2.7 kmh ESE 1.7 mph2.7 kmh 29.74 in1007.1 mb 0.00 in0.0 mm 0.00 in/hr0.0 mm/hr 0.00 in0.0 mm
10:21 PM 40.6°F4.8°C 34.9°F1.6°C 80% 1.7 mph 2.7 kmh 1.7 mph2.7 kmh 29.75 in1007.5 mb 0.00 in0.0 mm 0.00 in/hr0.0 mm/hr 0.00 in0.0 mm
10:26 PM 40.6°F4.8°C 34.9°F1.6°C 80% 1.1 mph SSE1.8 kmh SSE 1.7 mph2.7 kmh 29.75 in1007.5 mb 0.00 in0.0 mm 0.00 in/hr0.0 mm/hr 0.00 in0.0 mm
10:31 PM 40.2°F4.6°C 34.5°F1.4°C 80% Calm Calm 1.1 mph1.8 kmh 29.75 in1007.5 mb 0.00 in0.0 mm 0.00 in/hr0.0 mm/hr 0.00 in0.0 mm
10:36 PM 40.1°F4.5°C 34.4°F1.3°C 80% 1.3 mph NNW2.1 kmh NNW 1.5 mph2.4 kmh 29.75 in1007.5 mb 0.00 in0.0 mm 0.00 in/hr0.0 mm/hr 0.00 in0.0 mm
10:41 PM 40.2°F4.6°C 34.5°F1.4°C 80% 2.9 mph ESE4.7 kmh ESE 4.0 mph6.4 kmh 29.75 in1007.5 mb 0.00 in0.0 mm 0.00 in/hr0.0 mm/hr 0.00 in0.0 mm
10:47 PM 40.2°F4.6°C 34.5°F1.4°C 80% 1.1 mph NNE1.8 kmh NNE 4.0 mph6.4 kmh 29.75 in1007.5 mb 0.00 in0.0 mm 0.00 in/hr0.0 mm/hr 0.00 in0.0 mm
10:52 PM 40.2°F4.6°C 34.5°F1.4°C 80% 2.1 mph SE3.4 kmh SE 2.2 mph3.5 kmh 29.75 in1007.5 mb 0.00 in0.0 mm 0.00 in/hr0.0 mm/hr 0.00 in0.0 mm
10:57 PM 40.2°F4.6°C 34.5°F1.4°C 81% 1.7 mph SE2.7 kmh SE 2.2 mph3.5 kmh 29.75 in1007.5 mb 0.00 in0.0 mm 0.00 in/hr0.0 mm/hr 0.00 in0.0 mm
11:02 PM 40.2°F4.6°C 34.5°F1.4°C 80% 0.4 mph NNE0.6 kmh NNE 2.0 mph3.2 kmh 29.75 in1007.5 mb 0.00 in0.0 mm 0.00 in/hr0.0 mm/hr 0.00 in0.0 mm
11:07 PM 40.1°F4.5°C 34.7°F1.5°C 81% 2.1 mph SE3.4 kmh SE 2.2 mph3.5 kmh 29.75 in1007.5 mb 0.00 in0.0 mm 0.00 in/hr0.0 mm/hr 0.00 in0.0 mm
11:12 PM 39.9°F4.4°C 34.5°F1.4°C 81% 1.8 mph NNE2.9 kmh NNE 2.2 mph3.5 kmh 29.75 in1007.5 mb 0.00 in0.0 mm 0.00 in/hr0.0 mm/hr 0.00 in0.0 mm
11:17 PM 39.7°F4.3°C 34.4°F1.3°C 81% 0.8 mph ENE1.3 kmh ENE 2.2 mph3.5 kmh 29.75 in1007.5 mb 0.00 in0.0 mm 0.00 in/hr0.0 mm/hr 0.00 in0.0 mm
11:22 PM 39.7°F4.3°C 34.4°F1.3°C 82% 2.2 mph SE3.5 kmh SE 2.2 mph3.5 kmh 29.75 in1007.5 mb 0.00 in0.0 mm 0.00 in/hr0.0 mm/hr 0.00 in0.0 mm
11:27 PM 39.5°F4.2°C 34.5°F1.4°C 82% 0.4 mph NE0.6 kmh NE 2.2 mph3.5 kmh 29.75 in1007.5 mb 0.00 in0.0 mm 0.00 in/hr0.0 mm/hr 0.00 in0.0 mm
11:32 PM 39.5°F4.2°C 34.5°F1.4°C 82% 1.1 mph 1.8 kmh 2.0 mph3.2 kmh 29.75 in1007.5 mb 0.00 in0.0 mm 0.00 in/hr0.0 mm/hr 0.00 in0.0 mm
11:37 PM 39.5°F4.2°C 34.5°F1.4°C 82% 1.5 mph E2.4 kmh E 2.6 mph4.2 kmh 29.76 in1007.8 mb 0.00 in0.0 mm 0.00 in/hr0.0 mm/hr 0.00 in0.0 mm
11:42 PM 39.3°F4.1°C 34.3°F1.3°C 82% 2.2 mph E3.5 kmh E 3.3 mph5.3 kmh 29.76 in1007.8 mb 0.00 in0.0 mm 0.00 in/hr0.0 mm/hr 0.00 in0.0 mm
11:47 PM 39.5°F4.2°C 34.5°F1.4°C 82% 1.9 mph E3.1 kmh E 3.8 mph6.1 kmh 29.76 in1007.8 mb 0.00 in0.0 mm 0.00 in/hr0.0 mm/hr 0.00 in0.0 mm
11:52 PM 39.2°F4.0°C 34.1°F1.2°C 82% 1.7 mph SE2.7 kmh SE 3.8 mph6.1 kmh 29.75 in1007.5 mb 0.00 in0.0 mm 0.00 in/hr0.0 mm/hr 0.00 in0.0 mm
11:57 PM 39.0°F3.9°C 34.0°F1.1°C 82% 0.8 mph ESE1.3 kmh ESE 1.7 mph2.7 kmh 29.76 in1007.8 mb 0.00 in0.0 mm 0.00 in/hr0.0 mm/hr 0.00 in0.0 mm